Rosaria Lauro — IXXO — position and weather

sailwx.info

Track history (hours):
 
Tides and Currents Weather Stations Pressure Air Temp Water Temp Dewpoint Dewpoint Depression Visibility Wind Speed Wind Dir Waves Ship Positions

Rosaria Lauro

Last reported at 2014-Sep-17 15:30 UTC. Time now 2014-Sep-17 15:39 UTC.
Position N 40°49' E 014°16'.

Length 40 m; draft 1.5 m.

Type: Passenger vessel. MMSI: 247055900.

Date/timePositionNaut miles runAvg speedWind from/ knotsBaromVisibWave heightAir tempDewpointWater temp
2014-Sep-17 15:30N 40°49' E 014°16'910.0
2014-Sep-17 14:34N 40°46' E 014°04'6 6.2
2014-Sep-17 13:33N 40°45' E 013°56'8 0.3
2014-Sep-16 05:33N 40°46' E 014°07'1212.0
2014-Sep-16 04:33N 40°44' E 013°52'0 0.0
2014-Sep-15 17:20N 40°44' E 013°52'4 4.8
2014-Sep-15 16:33N 40°45' E 013°56'1612.9
2014-Sep-15 15:19N 40°50' E 014°16'1925.5
2014-Sep-15 14:33N 40°45' E 013°52'4 3.7
2014-Sep-15 13:33N 40°45' E 013°56'1610.9
2014-Sep-15 12:04N 40°50' E 014°17'1223.9
2014-Sep-15 11:34N 40°46' E 014°01'8 7.7
2014-Sep-15 10:34N 40°44' E 013°52'1010.1
2014-Sep-15 09:34N 40°46' E 014°05'10 9.7
2014-Sep-15 08:33N 40°50' E 014°17'1818.5
2014-Sep-15 07:33N 40°46' E 013°53'9 4.4
2014-Sep-15 05:34N 40°46' E 014°04'10 9.8
2014-Sep-15 04:33N 40°44' E 013°52'10 1.0
2014-Sep-14 18:34N 40°45' E 014°04'5 5.2
2014-Sep-14 17:34N 40°47' E 014°11'1514.7
2014-Sep-14 16:34N 40°45' E 013°52'2016.9
2014-Sep-14 15:24N 40°50' E 014°17'2023.5
2014-Sep-14 14:34N 40°45' E 013°52'4 3.7
2014-Sep-14 13:34N 40°45' E 013°56'1511.7
2014-Sep-14 12:15N 40°50' E 014°15'1318.8
2014-Sep-14 11:34N 40°44' E 014°00'7 6.7
2014-Sep-14 10:33N 40°44' E 013°52'1110.9
2014-Sep-14 09:34N 40°45' E 014°06'9 8.6
2014-Sep-14 08:29N 40°50' E 014°17'1617.5
2014-Sep-14 07:34N 40°45' E 013°56'1 0.1
2014-Sep-13 18:34N 40°45' E 013°56'1615.8
2014-Sep-13 17:33N 40°49' E 014°16'1919.3
2014-Sep-13 16:33N 40°44' E 013°52'1916.7
2014-Sep-13 15:24N 40°50' E 014°16'1923.2
2014-Sep-13 14:33N 40°45' E 013°52'4 4.1
2014-Sep-13 13:34N 40°45' E 013°57'1611.8
2014-Sep-13 12:14N 40°50' E 014°16'1421.4
2014-Sep-13 11:33N 40°44' E 013°59'6 5.1
2014-Sep-13 10:28N 40°44' E 013°52'1213.0
2014-Sep-13 09:34N 40°46' E 014°07'8 8.1
2014-Sep-13 08:33N 40°50' E 014°17'1717.1
2014-Sep-13 07:34N 40°45' E 013°55'1312.6
2014-Sep-13 06:34N 40°47' E 014°11'4 3.5
2014-Sep-13 05:34N 40°46' E 014°07'1211.7
2014-Sep-13 04:33N 40°44' E 013°52'3 0.3
2014-Sep-12 18:34N 40°46' E 013°55'1717.0
2014-Sep-12 17:34N 40°50' E 014°17'2019.9
2014-Sep-12 16:34N 40°45' E 013°52'1916.0
2014-Sep-12 15:20N 40°50' E 014°16'1924.5
2014-Sep-12 14:33N 40°46' E 013°52'4 3.7
2014-Sep-12 13:33N 40°45' E 013°56'1611.1
2014-Sep-12 12:07N 40°50' E 014°16'1220.8
2014-Sep-12 11:34N 40°46' E 014°02'8 7.8
2014-Sep-12 10:31N 40°44' E 013°52'9 8.9
2014-Sep-12 09:34N 40°46' E 014°03'1110.2
2014-Sep-12 08:29N 40°50' E 014°16'1617.6
2014-Sep-12 07:34N 40°45' E 013°56'1313.0
2014-Sep-12 06:33N 40°47' E 014°13'8 7.7
2014-Sep-12 05:34N 40°46' E 014°03'9 8.9
2014-Sep-12 04:33N 40°44' E 013°52'4 0.3
2014-Sep-11 16:33N 40°45' E 013°56'1613.2
2014-Sep-11 15:20N 40°50' E 014°17'2025.5
2014-Sep-11 14:33N 40°45' E 013°51'4 3.7
2014-Sep-11 13:33N 40°45' E 013°56'1611.3
2014-Sep-11 12:09N 40°50' E 014°16'1220.0
2014-Sep-11 11:34N 40°46' E 014°01'8 7.7
2014-Sep-11 10:33N 40°44' E 013°52'9 9.3
2014-Sep-11 09:34N 40°46' E 014°04'10 9.9
2014-Sep-11 08:31N 40°50' E 014°16'20 1.1
2014-Sep-10 14:04N 40°44' E 013°52'4 7.2
2014-Sep-10 13:33N 40°45' E 013°56'1611.0
2014-Sep-10 12:07N 40°50' E 014°16'1221.3
2014-Sep-10 11:33N 40°46' E 014°01'7 7.5
2014-Sep-10 10:33N 40°44' E 013°52'18 8.3
2014-Sep-10 08:21N 40°48' E 014°15'15 0.8
2014-Sep-09 13:33N 40°45' E 013°56'1611.4
2014-Sep-09 12:08N 40°50' E 014°16'1423.8
2014-Sep-09 11:34N 40°46' E 013°59'5 0.2
2014-Sep-08 09:27N 40°46' E 014°06'9 8.8
2014-Sep-08 08:29N 40°50' E 014°16'18 1.1
2014-Sep-07 16:28N 40°46' E 013°54'  
Track history (hours):
 
Tides and Currents Weather Stations Pressure Air Temp Water Temp Dewpoint Dewpoint Depression Visibility Wind Speed Wind Dir Waves Ship Positions

Rosaria Lauro

Last reported at 2014-Sep-17 15:30 UTC. Time now 2014-Sep-17 15:39 UTC.
Position N 40°49' E 014°16'.

Length 40 m; draft 1.5 m.

Type: Passenger vessel. MMSI: 247055900.

Date/timePositionNaut miles runAvg speedWind from/ knotsBaromVisibWave heightAir tempDewpointWater temp
2014-Sep-17 15:30N 40°49' E 014°16'910.0
2014-Sep-17 14:34N 40°46' E 014°04'6 6.2
2014-Sep-17 13:33N 40°45' E 013°56'8 0.3
2014-Sep-16 05:33N 40°46' E 014°07'1212.0
2014-Sep-16 04:33N 40°44' E 013°52'0 0.0
2014-Sep-15 17:20N 40°44' E 013°52'4 4.8
2014-Sep-15 16:33N 40°45' E 013°56'1612.9
2014-Sep-15 15:19N 40°50' E 014°16'1925.5
2014-Sep-15 14:33N 40°45' E 013°52'4 3.7
2014-Sep-15 13:33N 40°45' E 013°56'1610.9
2014-Sep-15 12:04N 40°50' E 014°17'1223.9
2014-Sep-15 11:34N 40°46' E 014°01'8 7.7
2014-Sep-15 10:34N 40°44' E 013°52'1010.1
2014-Sep-15 09:34N 40°46' E 014°05'10 9.7
2014-Sep-15 08:33N 40°50' E 014°17'1818.5
2014-Sep-15 07:33N 40°46' E 013°53'9 4.4
2014-Sep-15 05:34N 40°46' E 014°04'10 9.8
2014-Sep-15 04:33N 40°44' E 013°52'10 1.0
2014-Sep-14 18:34N 40°45' E 014°04'5 5.2
2014-Sep-14 17:34N 40°47' E 014°11'1514.7
2014-Sep-14 16:34N 40°45' E 013°52'2016.9
2014-Sep-14 15:24N 40°50' E 014°17'2023.5
2014-Sep-14 14:34N 40°45' E 013°52'4 3.7
2014-Sep-14 13:34N 40°45' E 013°56'1511.7
2014-Sep-14 12:15N 40°50' E 014°15'1318.8
2014-Sep-14 11:34N 40°44' E 014°00'7 6.7
2014-Sep-14 10:33N 40°44' E 013°52'1110.9
2014-Sep-14 09:34N 40°45' E 014°06'9 8.6
2014-Sep-14 08:29N 40°50' E 014°17'1617.5
2014-Sep-14 07:34N 40°45' E 013°56'1 0.1
2014-Sep-13 18:34N 40°45' E 013°56'1615.8
2014-Sep-13 17:33N 40°49' E 014°16'1919.3
2014-Sep-13 16:33N 40°44' E 013°52'1916.7
2014-Sep-13 15:24N 40°50' E 014°16'1923.2
2014-Sep-13 14:33N 40°45' E 013°52'4 4.1
2014-Sep-13 13:34N 40°45' E 013°57'1611.8
2014-Sep-13 12:14N 40°50' E 014°16'1421.4
2014-Sep-13 11:33N 40°44' E 013°59'6 5.1
2014-Sep-13 10:28N 40°44' E 013°52'1213.0
2014-Sep-13 09:34N 40°46' E 014°07'8 8.1
2014-Sep-13 08:33N 40°50' E 014°17'1717.1
2014-Sep-13 07:34N 40°45' E 013°55'1312.6
2014-Sep-13 06:34N 40°47' E 014°11'4 3.5
2014-Sep-13 05:34N 40°46' E 014°07'1211.7
2014-Sep-13 04:33N 40°44' E 013°52'3 0.3
2014-Sep-12 18:34N 40°46' E 013°55'1717.0
2014-Sep-12 17:34N 40°50' E 014°17'2019.9
2014-Sep-12 16:34N 40°45' E 013°52'1916.0
2014-Sep-12 15:20N 40°50' E 014°16'1924.5
2014-Sep-12 14:33N 40°46' E 013°52'4 3.7
2014-Sep-12 13:33N 40°45' E 013°56'1611.1
2014-Sep-12 12:07N 40°50' E 014°16'1220.8
2014-Sep-12 11:34N 40°46' E 014°02'8 7.8
2014-Sep-12 10:31N 40°44' E 013°52'9 8.9
2014-Sep-12 09:34N 40°46' E 014°03'1110.2
2014-Sep-12 08:29N 40°50' E 014°16'1617.6
2014-Sep-12 07:34N 40°45' E 013°56'1313.0
2014-Sep-12 06:33N 40°47' E 014°13'8 7.7
2014-Sep-12 05:34N 40°46' E 014°03'9 8.9
2014-Sep-12 04:33N 40°44' E 013°52'4 0.3
2014-Sep-11 16:33N 40°45' E 013°56'1613.2
2014-Sep-11 15:20N 40°50' E 014°17'2025.5
2014-Sep-11 14:33N 40°45' E 013°51'4 3.7
2014-Sep-11 13:33N 40°45' E 013°56'1611.3
2014-Sep-11 12:09N 40°50' E 014°16'1220.0
2014-Sep-11 11:34N 40°46' E 014°01'8 7.7
2014-Sep-11 10:33N 40°44' E 013°52'9 9.3
2014-Sep-11 09:34N 40°46' E 014°04'10 9.9
2014-Sep-11 08:31N 40°50' E 014°16'20 1.1
2014-Sep-10 14:04N 40°44' E 013°52'4 7.2
2014-Sep-10 13:33N 40°45' E 013°56'1611.0
2014-Sep-10 12:07N 40°50' E 014°16'1221.3
2014-Sep-10 11:33N 40°46' E 014°01'7 7.5
2014-Sep-10 10:33N 40°44' E 013°52'18 8.3
2014-Sep-10 08:21N 40°48' E 014°15'15 0.8
2014-Sep-09 13:33N 40°45' E 013°56'1611.4
2014-Sep-09 12:08N 40°50' E 014°16'1423.8
2014-Sep-09 11:34N 40°46' E 013°59'5 0.2
2014-Sep-08 09:27N 40°46' E 014°06'9 8.8
2014-Sep-08 08:29N 40°50' E 014°16'18 1.1
2014-Sep-07 16:28N 40°46' E 013°54'  

Dump ship's entire track history